Time,TemperatureF,DewpointF,PressureIn,WindDirection,WindDirectionDegrees,WindSpeedMPH,WindSpeedGustMPH,Humidity,HourlyPrecipIn,Conditions,Clouds,dailyrainin,SolarRadiationWatts/m^2,SoftwareType,DateUTC
2013-01-06 12:51:00,49.0,40.0,-100.00,SSW,208,13.0,19.0,70,0.00,,,0.13,330.000000,,2013-01-06 20:51:00,
2013-01-06 13:22:00,49.0,40.0,-100.00,SSW,208,13.0,19.0,70,0.00,,,0.13,330.000000,,2013-01-06 21:22:00,
2013-01-06 13:33:00,49.0,40.0,-100.00,SSW,208,13.0,19.0,70,0.00,,,0.13,330.000000,,2013-01-06 21:33:00,
2013-01-06 13:42:00,49.0,40.0,-100.00,SSW,208,13.0,19.0,70,0.00,,,0.13,330.000000,,2013-01-06 21:42:00,
2013-01-06 13:51:00,48.0,42.0,-100.00,WSW,238,14.0,22.0,79,0.00,,,0.13,313.000000,,2013-01-06 21:51:00,
2013-01-06 14:12:00,48.0,42.0,-100.00,WSW,238,14.0,22.0,79,0.00,,,0.13,313.000000,,2013-01-06 22:12:00,
2013-01-06 14:22:00,48.0,42.0,-100.00,WSW,238,14.0,22.0,79,0.00,,,0.13,313.000000,,2013-01-06 22:22:00,
2013-01-06 14:33:00,48.0,42.0,-100.00,WSW,238,14.0,22.0,79,0.00,,,0.13,313.000000,,2013-01-06 22:33:00,
2013-01-06 14:42:00,48.0,42.0,-100.00,WSW,238,14.0,22.0,79,0.00,,,0.13,313.000000,,2013-01-06 22:42:00,
2013-01-06 14:51:00,49.0,41.0,-100.00,SW,216,15.0,22.0,75,0.00,,,0.13,206.000000,,2013-01-06 22:51:00,
2013-01-06 15:12:00,49.0,41.0,-100.00,SW,216,15.0,22.0,75,0.00,,,0.13,206.000000,,2013-01-06 23:12:00,
2013-01-06 15:22:00,49.0,41.0,-100.00,SW,216,15.0,22.0,75,0.00,,,0.13,206.000000,,2013-01-06 23:22:00,
2013-01-06 15:32:00,49.0,41.0,-100.00,SW,216,15.0,22.0,75,0.00,,,0.13,206.000000,,2013-01-06 23:32:00,
2013-01-06 15:42:00,49.0,41.0,-100.00,SW,216,15.0,22.0,75,0.00,,,0.13,206.000000,,2013-01-06 23:42:00,
2013-01-06 15:51:00,47.0,39.0,-100.00,SW,215,16.0,22.0,74,0.00,,,0.13,126.000000,,2013-01-06 23:51:00,
2013-01-06 16:22:00,47.0,39.0,-100.00,SW,215,16.0,22.0,74,0.00,,,0.13,126.000000,,2013-01-07 00:22:00,
2013-01-06 16:32:00,47.0,39.0,-100.00,SW,215,16.0,22.0,74,0.00,,,0.13,126.000000,,2013-01-07 00:32:00,
2013-01-06 16:42:00,47.0,39.0,-100.00,SW,215,16.0,22.0,74,0.00,,,0.13,126.000000,,2013-01-07 00:42:00,
2013-01-06 16:51:00,46.0,41.0,-100.00,SSW,207,15.0,22.0,82,0.00,,,0.13,40.000000,,2013-01-07 00:51:00,
2013-01-06 17:22:00,46.0,41.0,-100.00,SSW,207,15.0,22.0,82,0.00,,,0.13,40.000000,,2013-01-07 01:22:00,
2013-01-06 17:32:00,46.0,41.0,-100.00,SSW,207,15.0,22.0,82,0.00,,,0.13,40.000000,,2013-01-07 01:32:00,
2013-01-06 17:42:00,46.0,41.0,-100.00,SSW,207,15.0,22.0,82,0.00,,,0.13,40.000000,,2013-01-07 01:42:00,
2013-01-06 17:51:00,44.0,43.0,-100.00,SSW,198,9.0,22.0,95,0.00,,,0.13,1.000000,,2013-01-07 01:51:00,
2013-01-06 18:22:00,44.0,43.0,-100.00,SSW,198,9.0,22.0,95,0.00,,,0.13,1.000000,,2013-01-07 02:22:00,
2013-01-06 18:32:00,44.0,43.0,-100.00,SSW,198,9.0,22.0,95,0.00,,,0.13,1.000000,,2013-01-07 02:32:00,
2013-01-06 18:42:00,44.0,43.0,-100.00,SSW,198,9.0,22.0,95,0.00,,,0.13,1.000000,,2013-01-07 02:42:00,
2013-01-06 18:51:00,44.0,43.0,-100.00,ESE,117,5.0,10.0,97,0.00,,,0.13,0.000000,,2013-01-07 02:51:00,
2013-01-06 19:22:00,44.0,43.0,-100.00,ESE,117,5.0,10.0,97,0.00,,,0.13,0.000000,,2013-01-07 03:22:00,
2013-01-06 19:32:00,44.0,43.0,-100.00,ESE,117,5.0,10.0,97,0.00,,,0.13,0.000000,,2013-01-07 03:32:00,
2013-01-06 19:42:00,44.0,43.0,-100.00,ESE,117,5.0,10.0,97,0.00,,,0.13,0.000000,,2013-01-07 03:42:00,
2013-01-06 19:51:00,43.0,43.0,-100.00,SE,141,8.0,9.0,100,0.08,,,0.21,0.000000,,2013-01-07 03:51:00,
2013-01-06 20:12:00,43.0,43.0,-100.00,SE,141,8.0,9.0,100,0.08,,,0.21,0.000000,,2013-01-07 04:12:00,
2013-01-06 20:22:00,43.0,43.0,-100.00,SE,141,8.0,9.0,100,0.08,,,0.21,0.000000,,2013-01-07 04:22:00,
2013-01-06 20:32:00,43.0,43.0,-100.00,SE,141,8.0,9.0,100,0.08,,,0.21,0.000000,,2013-01-07 04:32:00,
2013-01-06 20:42:00,43.0,43.0,-100.00,SE,141,8.0,9.0,100,0.08,,,0.21,0.000000,,2013-01-07 04:42:00,
2013-01-06 20:51:00,43.0,43.0,-100.00,ENE,57,8.0,11.0,100,0.01,,,0.22,0.000000,,2013-01-07 04:51:00,
2013-01-06 21:12:00,43.0,43.0,-100.00,ENE,57,8.0,11.0,100,0.01,,,0.22,0.000000,,2013-01-07 05:12:00,
2013-01-06 21:22:00,43.0,43.0,-100.00,ENE,57,8.0,11.0,100,0.01,,,0.22,0.000000,,2013-01-07 05:22:00,
2013-01-06 21:32:00,43.0,43.0,-100.00,ENE,57,8.0,11.0,100,0.01,,,0.22,0.000000,,2013-01-07 05:32:00,
2013-01-06 21:42:00,43.0,43.0,-100.00,ENE,57,8.0,11.0,100,0.01,,,0.22,0.000000,,2013-01-07 05:42:00,
2013-01-06 21:51:00,43.0,41.0,-100.00,NE,51,11.0,14.0,94,0.00,,,0.22,0.000000,,2013-01-07 05:51:00,
2013-01-06 22:12:00,43.0,41.0,-100.00,NE,51,11.0,14.0,94,0.00,,,0.22,0.000000,,2013-01-07 06:12:00,
2013-01-06 22:22:00,43.0,41.0,-100.00,NE,51,11.0,14.0,94,0.00,,,0.22,0.000000,,2013-01-07 06:22:00,
2013-01-06 22:32:00,43.0,41.0,-100.00,NE,51,11.0,14.0,94,0.00,,,0.22,0.000000,,2013-01-07 06:32:00,
2013-01-06 22:42:00,43.0,41.0,-100.00,NE,51,11.0,14.0,94,0.00,,,0.22,0.000000,,2013-01-07 06:42:00,
2013-01-06 22:51:00,43.0,39.0,-100.00,ENE,61,7.0,17.0,87,0.00,,,0.22,0.000000,,2013-01-07 06:51:00,
2013-01-06 23:12:00,43.0,39.0,-100.00,ENE,61,7.0,17.0,87,0.00,,,0.22,0.000000,,2013-01-07 07:12:00,
2013-01-06 23:22:00,43.0,39.0,-100.00,ENE,61,7.0,17.0,87,0.00,,,0.22,0.000000,,2013-01-07 07:22:00,
2013-01-06 23:32:00,43.0,39.0,-100.00,ENE,61,7.0,17.0,87,0.00,,,0.22,0.000000,,2013-01-07 07:32:00,
2013-01-06 23:42:00,43.0,39.0,-100.00,ENE,61,7.0,17.0,87,0.00,,,0.22,0.000000,,2013-01-07 07:42:00,
2013-01-06 23:51:00,43.0,38.0,-100.00,NE,55,6.0,10.0,81,0.00,,,0.22,0.000000,,2013-01-07 07:51:00,